createdAt,value
2018-09-22T00:00:57.964Z,11.40
2018-09-22T00:05:57.437Z,11.40
2018-09-22T00:10:56.968Z,11.40
2018-09-22T00:20:55.436Z,11.10
2018-09-22T00:30:53.942Z,11.10
2018-09-22T00:40:52.524Z,11.10
2018-09-22T00:43:22.586Z,11.10
2018-09-22T00:45:52.556Z,11.10
2018-09-22T01:00:52.290Z,11.10
2018-09-22T01:03:22.592Z,11.20
2018-09-22T01:05:52.586Z,11.20
2018-09-22T01:13:21.554Z,11.10
2018-09-22T01:18:21.434Z,11.10
2018-09-22T01:38:17.668Z,10.80
2018-09-22T01:40:47.730Z,10.90
2018-09-22T01:48:16.815Z,11.00
2018-09-22T01:50:46.908Z,10.90
2018-09-22T01:53:16.908Z,10.80
2018-09-22T01:55:46.954Z,10.80
2018-09-22T01:58:16.910Z,10.80
2018-09-22T02:13:14.538Z,10.90
2018-09-22T02:18:14.068Z,10.90
2018-09-22T02:23:13.496Z,10.80
2018-09-22T02:25:43.525Z,10.80
2018-09-22T02:33:13.404Z,11.00
2018-09-22T02:40:42.265Z,10.90
2018-09-22T02:45:41.661Z,11.00
2018-09-22T02:48:11.643Z,11.10
2018-09-22T02:55:40.660Z,11.00
2018-09-22T02:58:10.641Z,11.10
2018-09-22T03:08:08.969Z,11.20
2018-09-22T03:20:36.864Z,11.20
2018-09-22T03:23:07.128Z,11.30
2018-09-22T03:30:36.356Z,11.20
2018-09-22T03:48:03.211Z,11.30
2018-09-22T03:53:02.829Z,11.40
2018-09-22T03:55:32.831Z,11.50
2018-09-22T03:58:02.822Z,11.40
2018-09-22T04:03:02.254Z,11.40
2018-09-22T04:05:32.201Z,11.40
2018-09-22T04:08:02.367Z,11.30
2018-09-22T04:10:32.395Z,11.30
2018-09-22T04:15:35.175Z,11.40
2018-09-22T04:18:05.187Z,11.40
2018-09-22T04:25:34.030Z,11.30
2018-09-22T04:28:04.549Z,11.20
2018-09-22T04:30:34.566Z,11.20
2018-09-22T04:35:33.933Z,11.20
2018-09-22T04:43:02.812Z,11.50
2018-09-22T04:45:32.789Z,11.40
2018-09-22T04:48:02.836Z,11.40
2018-09-22T04:53:12.173Z,11.20
2018-09-22T04:55:42.123Z,11.20
2018-09-22T05:00:41.544Z,11.10
2018-09-22T05:08:10.529Z,11.20
2018-09-22T05:15:39.473Z,11.00
2018-09-22T05:18:09.477Z,10.90
2018-09-22T05:25:38.562Z,10.70
2018-09-22T05:28:08.546Z,10.70
2018-09-22T05:35:37.468Z,10.90
2018-09-22T05:38:07.434Z,10.70
2018-09-22T05:40:37.588Z,10.80
2018-09-22T05:43:07.628Z,10.80
2018-09-22T05:48:07.711Z,10.90
2018-09-22T05:50:37.793Z,11.00
2018-09-22T05:53:07.816Z,11.00
2018-09-22T05:58:07.272Z,11.20
2018-09-22T06:05:40.013Z,11.50
2018-09-22T06:10:39.523Z,11.50
2018-09-22T06:13:09.556Z,11.40
2018-09-22T06:15:40.187Z,11.30
2018-09-22T06:20:39.837Z,11.30
2018-09-22T06:28:08.826Z,11.50
2018-09-22T06:40:36.627Z,11.80
2018-09-22T06:43:06.815Z,11.80
2018-09-22T06:50:35.903Z,12.10
2018-09-22T06:55:35.369Z,12.20
2018-09-22T07:05:33.853Z,12.40
2018-09-22T07:15:33.493Z,12.60
2018-09-22T07:25:42.127Z,12.70
2018-09-22T07:30:41.712Z,13.00
2018-09-22T07:35:41.161Z,13.20
2018-09-22T07:38:11.249Z,13.30
2018-09-22T07:40:41.912Z,13.40
2018-09-22T07:43:12.400Z,13.50
2018-09-22T07:45:42.775Z,13.60
2018-09-22T07:50:42.395Z,13.70
2018-09-22T07:55:42.150Z,13.90
2018-09-22T08:00:42.064Z,14.10
2018-09-22T08:05:42.259Z,14.00
2018-09-22T08:08:12.357Z,13.90
2018-09-22T08:10:42.497Z,13.80
2018-09-22T08:13:12.527Z,13.80
2018-09-22T08:15:42.580Z,13.90
2018-09-22T08:20:43.219Z,14.00
2018-09-22T08:23:14.544Z,14.20
2018-09-22T08:28:14.927Z,14.40
2018-09-22T08:30:47.574Z,14.40
2018-09-22T08:33:17.676Z,14.50
2018-09-22T08:35:47.670Z,14.70
2018-09-22T08:40:47.228Z,14.50
2018-09-22T08:48:17.735Z,15.00
2018-09-22T08:50:47.807Z,15.00
2018-09-22T08:53:17.824Z,14.90
2018-09-22T09:00:46.877Z,14.80
2018-09-22T09:03:16.872Z,14.70
2018-09-22T09:08:16.925Z,14.70
2018-09-22T09:15:46.000Z,15.10
2018-09-22T09:18:16.866Z,15.20
2018-09-22T09:25:46.658Z,15.50
2018-09-22T09:28:17.290Z,15.60
2018-09-22T09:40:46.597Z,16.00
2018-09-22T09:45:46.821Z,15.90
2018-09-22T09:50:48.450Z,15.80
2018-09-22T09:53:18.810Z,15.90
2018-09-22T09:55:48.931Z,15.70
2018-09-22T10:00:48.492Z,15.80
2018-09-22T10:10:48.048Z,16.50
2018-09-22T10:18:17.677Z,16.20
2018-09-22T10:20:47.758Z,16.20
2018-09-22T10:28:17.644Z,16.10
2018-09-22T10:33:17.247Z,16.30
2018-09-22T10:38:16.896Z,16.60
2018-09-22T10:40:46.935Z,16.70
2018-09-22T10:43:16.928Z,16.80
2018-09-22T10:50:46.371Z,16.90
2018-09-22T10:55:45.862Z,17.10
2018-09-22T11:03:15.646Z,17.30
2018-09-22T11:08:15.080Z,17.50
2018-09-22T11:10:45.427Z,17.40
2018-09-22T11:18:16.971Z,17.70
2018-09-22T11:25:46.072Z,17.70
2018-09-22T11:28:16.047Z,18.00
2018-09-22T11:38:18.088Z,17.20
2018-09-22T11:48:17.369Z,16.90
2018-09-22T11:55:46.483Z,17.20
2018-09-22T12:00:46.746Z,17.20
2018-09-22T12:03:16.762Z,17.40
2018-09-22T12:08:17.745Z,17.20
2018-09-22T12:10:47.761Z,17.20
2018-09-22T12:13:17.907Z,17.00
2018-09-22T12:20:47.716Z,16.90
2018-09-22T12:25:47.384Z,17.10
2018-09-22T12:28:17.389Z,17.20
2018-09-22T12:33:16.959Z,17.10
2018-09-22T12:38:16.521Z,16.60
2018-09-22T12:40:46.483Z,16.70
2018-09-22T12:45:45.938Z,16.80
2018-09-22T12:55:44.287Z,16.60
2018-09-22T12:58:14.308Z,16.70
2018-09-22T13:00:44.363Z,16.50
2018-09-22T13:13:12.148Z,16.50
2018-09-22T13:18:11.653Z,16.40
2018-09-22T13:20:41.940Z,16.40
2018-09-22T13:23:11.893Z,16.40
2018-09-22T13:28:12.815Z,16.30
2018-09-22T13:30:42.831Z,16.40
2018-09-22T13:35:42.268Z,16.50
2018-09-22T13:40:41.791Z,16.70
2018-09-22T13:43:12.144Z,16.70
2018-09-22T13:53:11.649Z,17.30
2018-09-22T14:08:08.836Z,17.10
2018-09-22T14:13:08.562Z,17.10
2018-09-22T14:20:37.484Z,17.10
2018-09-22T14:30:38.322Z,16.60
2018-09-22T14:33:08.507Z,16.50
2018-09-22T14:38:08.563Z,16.50
2018-09-22T14:43:10.389Z,16.40
2018-09-22T14:45:40.476Z,16.40
2018-09-22T14:48:11.149Z,16.30
2018-09-22T14:50:42.783Z,16.30
2018-09-22T14:55:42.606Z,16.20
2018-09-22T15:00:42.575Z,16.00
2018-09-22T15:03:13.404Z,15.70
2018-09-22T15:08:19.761Z,15.80
2018-09-22T15:13:20.530Z,15.70
2018-09-22T15:18:20.607Z,15.80
2018-09-22T15:20:51.513Z,15.70
2018-09-22T15:28:21.053Z,15.30
2018-09-22T15:30:51.797Z,15.20
2018-09-22T15:33:21.832Z,15.10
2018-09-22T15:40:54.721Z,14.90
2018-09-22T15:50:54.946Z,15.20
2018-09-22T16:05:54.807Z,13.90
2018-09-22T16:10:54.307Z,13.50
2018-09-22T16:20:58.867Z,13.20
2018-09-22T16:28:27.865Z,13.00
2018-09-22T16:30:58.813Z,13.00
2018-09-22T16:33:29.139Z,12.90
2018-09-22T16:38:30.589Z,12.70
2018-09-22T16:45:59.493Z,12.50
2018-09-22T16:48:29.505Z,12.40
2018-09-22T16:50:59.513Z,12.40
2018-09-22T17:00:59.166Z,12.40
2018-09-22T17:05:58.689Z,12.30
2018-09-22T17:13:27.777Z,12.40
2018-09-22T17:18:27.316Z,12.50
2018-09-22T17:33:34.340Z,12.70
2018-09-22T17:36:04.374Z,12.70
2018-09-22T17:38:34.378Z,12.60
2018-09-22T17:43:33.915Z,12.40
2018-09-22T17:48:33.531Z,12.50
2018-09-22T17:53:32.921Z,12.50
2018-09-22T18:10:59.991Z,12.30
2018-09-22T18:15:59.531Z,12.30
2018-09-22T18:18:29.593Z,12.30
2018-09-22T18:20:59.598Z,12.40
2018-09-22T18:28:28.495Z,12.50
2018-09-22T18:30:58.505Z,12.50
2018-09-22T18:40:56.853Z,12.40
2018-09-22T18:45:56.321Z,12.30
2018-09-22T18:55:54.691Z,12.10
2018-09-22T19:08:23.083Z,12.10
2018-09-22T19:10:53.062Z,12.20
2018-09-22T19:15:59.070Z,12.30
2018-09-22T19:18:34.622Z,12.30
2018-09-22T19:26:29.256Z,12.20
2018-09-22T19:31:40.934Z,12.10
2018-09-22T19:34:15.066Z,12.10
2018-09-22T19:39:28.368Z,12.00
2018-09-22T19:43:04.911Z,12.00
2018-09-22T19:45:39.224Z,11.90
2018-09-22T19:49:13.987Z,12.00
2018-09-22T19:51:49.625Z,12.00
2018-09-22T19:54:19.670Z,12.10
2018-09-22T19:56:49.684Z,12.00
2018-09-22T20:04:18.598Z,12.20
2018-09-22T20:06:48.589Z,12.10
2018-09-22T20:09:18.530Z,12.10
2018-09-22T20:14:18.120Z,12.10
2018-09-22T20:21:52.384Z,12.00
2018-09-22T20:26:51.956Z,12.00
2018-09-22T20:34:20.804Z,12.10
2018-09-22T20:36:50.792Z,12.00
2018-09-22T20:49:18.618Z,11.60
2018-09-22T20:51:48.574Z,11.70
2018-09-22T20:54:18.560Z,11.70
2018-09-22T20:56:48.577Z,11.80
2018-09-22T20:59:18.634Z,11.70
2018-09-22T21:06:47.482Z,11.60
2018-09-22T21:14:16.358Z,11.50
2018-09-22T21:21:45.253Z,11.40
2018-09-22T21:26:44.734Z,11.30
2018-09-22T21:29:14.731Z,11.20
2018-09-22T21:31:44.755Z,11.30
2018-09-22T21:34:14.732Z,11.20
2018-09-22T21:36:44.732Z,11.30
2018-09-22T21:41:44.183Z,11.50
2018-09-22T21:44:14.922Z,11.50
2018-09-22T21:49:14.363Z,11.50
2018-09-22T21:51:44.361Z,11.50
2018-09-22T21:56:43.800Z,11.60
2018-09-22T21:59:13.818Z,11.40
2018-09-22T22:04:13.218Z,11.40
2018-09-22T22:09:13.968Z,11.40
2018-09-22T22:11:44.154Z,11.40
2018-09-22T22:21:50.241Z,11.40
2018-09-22T22:26:50.581Z,11.50
2018-09-22T22:46:46.631Z,11.50
2018-09-22T22:54:15.465Z,11.70
2018-09-22T23:01:44.249Z,11.60
2018-09-22T23:04:14.211Z,11.60
2018-09-22T23:06:44.161Z,11.60
2018-09-22T23:09:14.959Z,11.60
2018-09-22T23:11:45.125Z,11.60
2018-09-22T23:19:14.085Z,11.60
2018-09-22T23:24:14.197Z,11.60
2018-09-22T23:26:44.138Z,11.60
2018-09-22T23:29:14.141Z,11.60
2018-09-22T23:34:13.526Z,11.60
2018-09-22T23:39:13.065Z,11.60
2018-09-22T23:44:13.016Z,11.60
2018-09-22T23:46:42.984Z,11.70
2018-09-22T23:51:42.430Z,11.70
2018-09-22T23:54:12.410Z,11.70
2018-09-22T23:59:11.766Z,11.80
